Poughkeepsie, New York
Current Conditions -  °F | °C
As of 8:53 AM on Thursday 18 Dec 2014 (Local Time) from KPOU Reporting Station
Few Clouds Few Clouds  
Wind Chill: 30°   Ceiling: Unl
Heat Index: 38°   Visibility: 10mi
Dew Point: 23°   Wind: 14mph
Humidity: 55%   Direction: 290°WNW
Pressure: 29.93"   Gusts: NA
Location:  41.71°N, 73.93°W
Report Text: KPOU 181353Z 29012KT 10SM FEW044 03/M05 A2993 RMK AO2 SLP132 T00331050
Loading
Personal Weather Stations






























Interactive Weather Map New forecast layout! Learn more

10-Day Weather Forecast

Advertisements
Track Severe Weather on mobile